Time;durP1;ratioP1;P1;durP2;ratioP2;P2;SDS_P1;SDS_P2;PMS_P1;PMS_P2;Temp;Humidity;BMP_temperature;BMP_pressure;BME280_temperature;BME280_humidity;BME280_pressure;Samples;Min_cycle;Max_cycle;Signal;HPM_P1;HPM_P2
2023/01/31 00:00:21;;;;;;;6.03;4.43;;;;;;;18.48;55.81;98903.56;2063492;28;19925;-48
2023/01/31 00:01:25;;;;;;;6.75;5.03;;;;;;;18.51;55.74;98905.88;2069932;28;20107;-45
2023/01/31 00:02:26;;;;;;;6.13;4.18;;;;;;;18.53;55.75;98909.19;2069775;28;20065;-48
2023/01/31 00:03:27;;;;;;;;;;;;;;;18.41;56.11;98905.38;2071019;28;20049;-46
2023/01/31 00:04:28;;;;;;;6.25;4.45;;;;;;;18.42;56.02;98901.69;2069523;28;20006;-46
2023/01/31 00:05:29;;;;;;;;;;;;;;;18.34;56.15;98915.25;2073753;28;20111;-46
2023/01/31 00:06:32;;;;;;;8.93;5.15;;;;;;;18.37;56.11;98909.47;2066382;28;19982;-47
2023/01/31 00:07:34;;;;;;;6.28;4.32;;;;;;;18.41;56.24;98907.22;2068993;28;20049;-47
2023/01/31 00:08:36;;;;;;;6.30;4.78;;;;;;;18.44;55.86;98905.00;2065773;28;20490;-47
2023/01/31 00:09:38;;;;;;;6.93;4.47;;;;;;;18.44;55.73;98894.25;2069853;28;20061;-44
2023/01/31 00:10:38;;;;;;;6.82;4.13;;;;;;;18.46;55.91;98896.72;2074980;28;20053;-45
2023/01/31 00:11:40;;;;;;;;;;;;;;;18.34;56.04;98887.56;2072302;28;20143;-47
2023/01/31 00:12:40;;;;;;;;;;;;;;;18.25;56.20;98889.56;2066687;28;19929;-48
2023/01/31 00:13:44;;;;;;;8.17;5.00;;;;;;;18.29;56.39;98885.47;2069663;28;19926;-48
2023/01/31 00:14:44;;;;;;;6.22;4.68;;;;;;;18.32;55.97;98882.38;2070770;28;22155;-45
2023/01/31 00:15:46;;;;;;;;;;;;;;;18.23;56.33;98887.06;2071818;28;20059;-47
2023/01/31 00:16:47;;;;;;;6.03;4.63;;;;;;;18.28;56.25;98889.19;2064413;28;19929;-45
2023/01/31 00:17:48;;;;;;;;;;;;;;;18.17;56.60;98882.50;2062216;28;20103;-46
2023/01/31 00:18:49;;;;;;;;;;;;;;;18.11;56.53;98883.28;2069052;28;20048;-49
2023/01/31 00:19:51;;;;;;;6.18;4.47;;;;;;;18.21;56.26;98890.97;2074063;28;19936;-47
2023/01/31 00:20:51;;;;;;;8.85;4.72;;;;;;;18.25;56.17;98889.56;2065672;28;20157;-48
2023/01/31 00:21:53;;;;;;;;;;;;;;;18.14;56.52;98890.09;2069166;28;20139;-46
2023/01/31 00:22:54;;;;;;;8.00;4.05;;;;;;;18.18;56.20;98877.94;2067672;28;19925;-47
2023/01/31 00:23:57;;;;;;;;;;;;;;;18.12;56.38;98879.56;2070322;28;20049;-48
2023/01/31 00:24:58;;;;;;;6.40;4.60;;;;;;;18.19;56.29;98875.06;2069200;28;19958;-46
2023/01/31 00:26:06;;;;;;;;;;;;;;;18.11;56.55;98877.03;2065077;28;20088;-50
2023/01/31 00:27:07;;;;;;;6.47;4.25;;;;;;;18.17;56.29;98877.13;2065267;28;19967;-45
2023/01/31 00:28:09;;;;;;;;;;;;;;;18.08;56.33;98883.66;2068163;28;20045;-44
2023/01/31 00:29:09;;;;;;;7.68;4.72;;;;;;;18.10;56.39;98876.22;2069275;28;20016;-45
2023/01/31 00:30:11;;;;;;;;;;;;;;;18.02;56.55;98879.88;2063593;28;20515;-48
2023/01/31 00:31:14;;;;;;;7.68;4.70;;;;;;;18.08;56.27;98883.66;2073299;28;19974;-46
2023/01/31 00:32:15;;;;;;;5.18;4.03;;;;;;;18.12;55.87;98882.22;2070540;28;20392;-44
2023/01/31 00:33:16;;;;;;;7.75;4.18;;;;;;;18.16;56.11;98890.72;2062661;28;20135;-46
2023/01/31 00:34:18;;;;;;;;;;;;;;;18.02;56.16;98895.97;2070269;28;20057;-45
2023/01/31 00:35:18;;;;;;;;;;;;;;;17.96;56.69;98902.13;2071862;28;19933;-46
2023/01/31 00:36:23;;;;;;;7.90;4.80;;;;;;;18.02;56.49;98895.97;2073555;28;19971;-46
2023/01/31 00:37:25;;;;;;;5.60;4.53;;;;;;;18.06;56.38;98891.06;2068178;28;20084;-46
2023/01/31 00:38:27;;;;;;;6.75;4.63;;;;;;;18.09;56.08;98894.19;2066955;28;20046;-46
2023/01/31 00:39:29;;;;;;;5.82;4.28;;;;;;;18.09;56.17;98896.03;2068486;28;20156;-46
2023/01/31 00:40:30;;;;;;;6.43;4.55;;;;;;;18.12;56.09;98901.03;2070366;28;20056;-47
2023/01/31 00:41:32;;;;;;;6.05;4.35;;;;;;;18.12;56.23;98894.84;2071715;28;20057;-48
2023/01/31 00:42:34;;;;;;;5.75;3.75;;;;;;;18.12;56.00;98900.19;2070426;28;20089;-47
2023/01/31 00:43:35;;;;;;;6.88;4.70;;;;;;;18.09;55.95;98896.03;2072426;28;20050;-45
2023/01/31 00:44:36;;;;;;;5.97;4.20;;;;;;;18.07;56.09;98900.78;2061539;28;20056;-46
2023/01/31 00:45:37;;;;;;;7.90;4.93;;;;;;;18.06;56.20;98899.13;2068470;28;20053;-48
2023/01/31 00:46:38;;;;;;;;;;;;;;;17.92;56.41;98906.22;2072959;28;20079;-46
2023/01/31 00:47:39;;;;;;;6.28;4.70;;;;;;;17.92;56.56;98906.22;2068348;28;20040;-46
2023/01/31 00:48:41;;;;;;;;;;;;;;;17.86;56.55;98896.28;2071678;28;20049;-46
2023/01/31 00:49:41;;;;;;;7.03;4.78;;;;;;;17.90;56.51;98894.84;2068962;28;19970;-48
2023/01/31 00:50:43;;;;;;;;;;;;;;;17.80;56.60;98900.56;2070415;28;20370;-46
2023/01/31 00:51:43;;;;;;;5.22;3.75;;;;;;;17.84;56.71;98891.06;2073853;28;19974;-46
2023/01/31 00:52:45;;;;;;;;;;;;;;;17.74;56.92;98882.47;2067888;28;20111;-46
2023/01/31 00:53:46;;;;;;;6.40;4.55;;;;;;;17.82;56.59;98890.44;2073893;28;19974;-48
2023/01/31 00:54:49;;;;;;;8.43;4.40;;;;;;;17.89;56.41;98889.69;2070824;28;20107;-44
2023/01/31 00:55:50;;;;;;;7.13;4.60;;;;;;;17.90;56.43;98886.78;2071488;28;20053;-46
2023/01/31 00:56:52;;;;;;;6.07;4.50;;;;;;;17.90;56.19;98891.34;2072617;28;20045;-46
2023/01/31 00:57:53;;;;;;;9.05;4.82;;;;;;;17.90;56.31;98891.34;2067910;28;20054;-48
2023/01/31 00:58:54;;;;;;;;;;;;;;;17.80;56.43;98892.50;2071984;28;20053;-45
2023/01/31 00:59:55;;;;;;;6.13;4.20;;;;;;;17.82;56.55;98895.78;2072749;28;20387;-47
2023/01/31 01:00:56;;;;;;;;;;;;;;;17.68;56.90;98899.34;2068316;28;20140;-47
2023/01/31 01:01:57;;;;;;;5.93;4.13;;;;;;;17.73;56.68;98896.09;2071285;28;20006;-46
2023/01/31 01:02:58;;;;;;;;;;;;;;;17.66;56.86;98896.00;2067977;28;22669;-50
2023/01/31 01:03:59;;;;;;;6.07;4.22;;;;;;;17.72;56.61;98899.78;2070436;28;19933;-46
2023/01/31 01:05:01;;;;;;;6.70;3.83;;;;;;;17.77;56.43;98897.38;2066810;28;20080;-50
2023/01/31 01:06:02;;;;;;;7.95;5.20;;;;;;;17.80;56.61;98897.00;2069079;28;20132;-48
2023/01/31 01:07:04;;;;;;;7.15;4.38;;;;;;;17.77;56.46;98903.56;2070275;28;20063;-45
2023/01/31 01:08:05;;;;;;;7.43;3.95;;;;;;;17.80;56.32;98902.38;2066634;28;20046;-46
2023/01/31 01:09:06;;;;;;;;;;;;;;;17.67;56.54;98897.69;2067870;28;20099;-45
2023/01/31 01:10:09;;;;;;;;;;;;;;;17.59;56.93;98900.50;2072673;28;19925;-46
2023/01/31 01:11:13;;;;;;;7.20;5.47;;;;;;;17.67;56.61;98903.06;2069310;28;19924;-45
2023/01/31 01:12:14;;;;;;;5.97;4.07;;;;;;;17.70;56.57;98901.84;2067618;28;20114;-44
2023/01/31 01:13:16;;;;;;;;;;;;;;;17.58;56.83;98905.03;2070508;28;20098;-45
2023/01/31 01:14:16;;;;;;;5.60;3.95;;;;;;;17.64;56.74;98906.94;2068212;28;19925;-47
2023/01/31 01:15:18;;;;;;;;;;;;;;;17.51;56.89;98908.66;2068822;28;20049;-48
2023/01/31 01:16:20;;;;;;;;;;;;;;;17.45;57.10;98904.06;2069744;28;20041;-47
2023/01/31 01:17:21;;;;;;;7.28;5.05;;;;;;;17.52;56.95;98910.31;2072451;28;19929;-48
2023/01/31 01:18:22;;;;;;;7.18;4.55;;;;;;;17.58;56.89;98905.03;2066027;28;20110;-44
2023/01/31 01:19:24;;;;;;;;;;;;;;;17.50;56.84;98910.53;2064743;28;20061;-47
2023/01/31 01:20:24;;;;;;;6.93;4.63;;;;;;;17.55;57.02;98907.25;2063474;28;19929;-47
2023/01/31 01:21:28;;;;;;;7.93;4.38;;;;;;;17.58;56.63;98914.94;2069587;28;20488;-48
2023/01/31 01:22:30;;;;;;;7.50;4.93;;;;;;;17.59;56.68;98911.22;2067654;28;20096;-49
2023/01/31 01:23:31;;;;;;;7.25;4.25;;;;;;;17.62;56.53;98908.16;2074001;28;20053;-48
2023/01/31 01:24:33;;;;;;;7.43;4.72;;;;;;;17.60;56.54;98911.03;2072060;28;20104;-47
2023/01/31 01:25:42;;;;;;;8.07;4.75;;;;;;;17.57;56.46;98913.25;2072717;28;20096;-46
2023/01/31 01:26:44;;;;;;;9.77;4.88;;;;;;;17.54;56.72;98919.84;2067727;28;20055;-46
2023/01/31 01:27:45;;;;;;;6.72;3.97;;;;;;;17.57;56.63;98914.09;2072666;28;20597;-45
2023/01/31 01:28:47;;;;;;;;;;;;;;;17.45;56.77;98914.78;2069453;28;20046;-45
2023/01/31 01:29:47;;;;;;;6.22;3.78;;;;;;;17.49;56.81;98916.88;2072493;28;19925;-48
2023/01/31 01:30:49;;;;;;;;;;;;;;;17.38;57.12;98925.41;2069214;28;20584;-46
2023/01/31 01:31:50;;;;;;;4.85;3.78;;;;;;;17.39;56.98;98911.00;2068391;28;19939;-45
2023/01/31 01:32:54;;;;;;;;;;;;;;;17.31;57.11;98916.50;2068333;28;20058;-48
2023/01/31 01:33:56;;;;;;;6.32;4.32;;;;;;;17.38;56.99;98915.56;2065230;28;19928;-47
2023/01/31 01:34:58;;;;;;;6.38;4.38;;;;;;;17.40;56.96;98918.84;2070815;28;20049;-47
2023/01/31 01:36:00;;;;;;;5.13;4.18;;;;;;;17.41;56.85;98908.94;2064098;28;20112;-49
2023/01/31 01:37:10;;;;;;;6.40;4.22;;;;;;;17.42;56.87;98910.63;2069127;28;20152;-50
2023/01/31 01:38:11;;;;;;;5.63;4.22;;;;;;;17.40;56.98;98912.66;2071442;28;20087;-49
2023/01/31 01:39:13;;;;;;;6.45;3.92;;;;;;;17.40;56.99;98909.97;2066676;28;20041;-44
2023/01/31 01:40:14;;;;;;;5.78;3.97;;;;;;;17.42;56.80;98916.00;2067700;28;20111;-46
2023/01/31 01:41:17;;;;;;;;;;;;;;;17.28;57.11;98920.38;2070270;28;20659;-44
2023/01/31 01:42:20;;;;;;;6.40;5.20;;;;;;;17.32;57.24;98920.81;2066553;28;21151;-45
2023/01/31 01:43:38;;;;;;;6.50;4.88;;;;;;;17.33;56.92;98928.69;2066971;28;20057;-47
2023/01/31 01:44:47;;;;;;;7.65;5.10;;;;;;;17.31;57.03;98930.72;2067888;28;20043;-54
2023/01/31 01:45:48;;;;;;;6.18;3.78;;;;;;;17.31;57.08;98925.34;2070442;28;20117;-45
2023/01/31 01:46:50;;;;;;;6.38;4.22;;;;;;;17.33;56.95;98927.84;2067223;28;20102;-46
2023/01/31 01:47:55;;;;;;;5.88;4.03;;;;;;;17.35;56.88;98923.13;2069850;28;20525;-48
2023/01/31 01:48:59;;;;;;;6.70;4.55;;;;;;;17.32;56.89;98918.97;2071107;28;20183;-47
2023/01/31 01:50:07;;;;;;;6.30;5.10;;;;;;;17.33;56.80;98917.97;2072653;28;20487;-45
2023/01/31 01:51:08;;;;;;;4.75;3.92;;;;;;;17.31;56.85;98927.22;2072452;28;20111;-47
2023/01/31 01:52:14;;;;;;;6.70;4.55;;;;;;;17.33;56.78;98925.19;2071024;28;20053;-47
2023/01/31 01:53:19;;;;;;;7.28;5.45;;;;;;;17.33;56.84;98933.22;2070123;28;20075;-46
2023/01/31 01:54:25;;;;;;;6.82;4.22;;;;;;;17.31;56.75;98933.41;2073443;28;20446;-47
2023/01/31 01:55:32;;;;;;;5.82;4.65;;;;;;;17.30;56.83;98930.88;2068855;28;20049;-47
2023/01/31 01:56:40;;;;;;;6.22;4.30;;;;;;;17.28;56.75;98933.78;2072213;28;20589;-48
2023/01/31 01:57:44;;;;;;;7.10;3.60;;;;;;;17.26;57.02;98932.28;2074333;28;20115;-47
2023/01/31 01:58:52;;;;;;;7.43;4.70;;;;;;;17.26;56.98;98934.97;2068227;28;20053;-47
2023/01/31 02:00:00;;;;;;;6.63;4.28;;;;;;;17.25;56.95;98939.50;2070480;28;21154;-46
2023/01/31 02:01:04;;;;;;;6.88;4.90;;;;;;;17.25;56.80;98938.69;2066503;28;20053;-46
2023/01/31 02:02:04;;;;;;;6.35;4.25;;;;;;;17.26;56.92;98948.38;2065853;28;20049;-46
2023/01/31 02:03:07;;;;;;;;;;;;;;;17.11;57.20;98949.22;2070036;28;20048;-46
2023/01/31 02:04:14;;;;;;;5.60;4.45;;;;;;;17.13;57.19;98954.38;2069807;28;19925;-47
2023/01/31 02:05:28;;;;;;;7.38;5.00;;;;;;;17.15;57.10;98947.00;2072270;28;20080;-50
2023/01/31 02:06:28;;;;;;;4.63;3.53;;;;;;;17.15;57.16;98947.00;2070184;28;20110;-47
2023/01/31 02:07:30;;;;;;;;;;;;;;;17.04;57.39;98950.97;2072684;28;20566;-49
2023/01/31 02:08:34;;;;;;;6.90;4.63;;;;;;;17.08;57.17;98944.25;2071714;28;19980;-47
2023/01/31 02:09:45;;;;;;;8.70;4.63;;;;;;;17.11;57.04;98941.19;2070963;28;20050;-50
2023/01/31 02:10:51;;;;;;;6.28;4.43;;;;;;;17.12;56.96;98945.53;2070048;28;20099;-46
2023/01/31 02:11:54;;;;;;;5.80;4.47;;;;;;;17.14;57.03;98951.53;2072220;28;20408;-47
2023/01/31 02:12:55;;;;;;;5.97;4.05;;;;;;;17.15;57.10;98942.47;2070983;28;20097;-46
2023/01/31 02:14:00;;;;;;;;;;;;;;;17.01;57.44;98950.53;2066570;28;20049;-46
2023/01/31 02:15:01;;;;;;;6.82;4.22;;;;;;;17.04;57.26;98944.78;2069970;28;19937;-48
2023/01/31 02:16:03;;;;;;;4.32;3.63;;;;;;;17.06;57.29;98948.13;2065917;28;20161;-49
2023/01/31 02:17:04;;;;;;;7.00;4.50;;;;;;;17.09;57.17;98945.06;2071482;28;20049;-46
2023/01/31 02:18:05;;;;;;;;;;;;;;;16.97;57.38;98942.88;2070508;28;20049;-48
2023/01/31 02:19:21;;;;;;;;;;;;;;;16.88;57.55;98949.34;2068520;28;19979;-47
2023/01/31 02:21:04;;;;;;;7.68;4.65;;;;;;;16.93;57.46;98952.28;2065091;28;20006;-48
2023/01/31 02:22:20;;;;;;;5.97;4.20;;;;;;;16.94;57.36;98955.81;2033273;28;20055;-49
2023/01/31 02:24:03;;;;;;;6.57;4.35;;;;;;;16.93;57.25;98954.94;2038740;28;20205;-50
2023/01/31 02:25:36;;;;;;;5.57;4.13;;;;;;;16.92;57.39;98960.50;2032533;28;20700;-46
2023/01/31 02:27:06;;;;;;;5.82;4.13;;;;;;;16.92;57.56;98955.97;2034119;28;20110;-46
2023/01/31 02:28:41;;;;;;;5.95;4.03;;;;;;;16.89;57.44;98955.53;2046192;28;20057;-46
2023/01/31 02:30:07;;;;;;;5.45;3.90;;;;;;;16.90;57.48;98954.50;2058782;28;20045;-50
2023/01/31 02:31:40;;;;;;;4.05;3.65;;;;;;;16.88;57.45;98957.38;2069092;28;20073;-48
2023/01/31 02:32:52;;;;;;;8.02;5.20;;;;;;;16.87;57.36;98958.38;2071570;28;20073;-48
2023/01/31 02:34:04;;;;;;;6.75;4.28;;;;;;;16.90;57.26;98958.00;2068018;28;20053;-49
2023/01/31 02:35:12;;;;;;;5.38;4.28;;;;;;;16.90;57.37;98959.84;2062210;28;20041;-47
2023/01/31 02:36:27;;;;;;;7.05;4.47;;;;;;;16.90;57.34;98966.03;2067841;28;20060;-49
2023/01/31 02:37:36;;;;;;;6.55;4.07;;;;;;;16.91;57.38;98965.03;2068691;28;20095;-51
2023/01/31 02:38:50;;;;;;;5.70;4.13;;;;;;;16.90;57.26;98962.53;2071884;28;21963;-50
2023/01/31 02:40:00;;;;;;;5.90;4.75;;;;;;;16.92;57.25;98969.38;2068034;28;20705;-47
2023/01/31 02:41:13;;;;;;;6.55;4.00;;;;;;;16.90;57.26;98967.91;2068729;28;20767;-48
2023/01/31 02:42:23;;;;;;;6.93;4.25;;;;;;;16.87;57.24;98970.94;2072179;28;20053;-48
2023/01/31 02:44:57;;;;;;;6.63;4.63;;;;;;;16.85;57.47;98979.16;2064187;28;20045;-51
2023/01/31 02:45:08;;;;;;;7.97;4.78;;;;;;;16.76;57.65;98980.22;2072470;28;20635;-47
2023/01/31 02:46:14;;;;;;;7.32;4.40;;;;;;;16.81;57.36;98979.72;2065129;28;20053;-48
2023/01/31 02:47:30;;;;;;;5.88;3.97;;;;;;;16.81;57.42;98982.41;2068153;28;20156;-50
2023/01/31 02:48:43;;;;;;;6.93;4.18;;;;;;;16.78;57.35;98975.56;2074296;28;20684;-47
2023/01/31 02:49:50;;;;;;;6.55;4.40;;;;;;;16.80;57.42;98980.72;2073955;28;20428;-47
2023/01/31 02:51:00;;;;;;;5.80;3.95;;;;;;;16.82;57.33;98984.06;2068052;28;20115;-50
2023/01/31 02:52:17;;;;;;;5.93;4.45;;;;;;;16.81;57.18;98983.22;2071904;28;20076;-50
2023/01/31 02:53:24;;;;;;;6.80;4.20;;;;;;;16.78;57.46;98982.78;2075263;28;20037;-48
2023/01/31 02:56:13;;;;;;;6.78;4.70;;;;;;;16.78;57.39;98980.09;2072747;28;20061;-47
2023/01/31 02:57:14;;;;;;;5.18;3.90;;;;;;;16.73;57.49;98978.75;2069543;28;20053;-55
2023/01/31 02:58:18;;;;;;;6.30;4.35;;;;;;;16.75;57.25;98979.41;2070737;28;20049;-46
2023/01/31 02:59:25;;;;;;;10.75;5.47;;;;;;;16.77;57.31;98975.72;2067818;28;20061;-50
2023/01/31 03:00:29;;;;;;;5.75;4.03;;;;;;;16.75;57.46;98987.44;2068526;28;20464;-49
2023/01/31 03:01:32;;;;;;;4.68;3.83;;;;;;;16.75;57.32;98991.97;2071376;28;20058;-51
2023/01/31 03:02:34;;;;;;;5.28;3.95;;;;;;;16.74;57.23;99001.84;2071716;28;20128;-49
2023/01/31 03:03:38;;;;;;;7.05;4.10;;;;;;;16.74;57.31;99006.34;2076027;28;20061;-54
2023/01/31 03:04:40;;;;;;;8.82;4.50;;;;;;;16.72;57.45;98995.03;2065244;28;20054;-51
2023/01/31 03:05:42;;;;;;;5.40;3.92;;;;;;;16.71;57.26;98988.81;2069777;28;20096;-54
2023/01/31 03:06:58;;;;;;;5.80;4.28;;;;;;;16.72;57.23;98992.34;2075703;28;20057;-50
2023/01/31 03:08:03;;;;;;;4.93;3.88;;;;;;;16.67;57.38;98997.41;2070109;28;20052;-53
2023/01/31 03:09:09;;;;;;;5.30;3.80;;;;;;;16.67;57.37;98998.22;2072949;28;20137;-53
2023/01/31 03:10:33;;;;;;;6.57;4.32;;;;;;;16.67;57.37;98992.06;2069441;28;20586;-53
2023/01/31 03:11:45;;;;;;;6.57;4.05;;;;;;;16.63;57.42;99001.44;2066907;28;20057;-48
2023/01/31 03:13:07;;;;;;;5.35;4.18;;;;;;;16.60;57.55;98991.94;2055850;28;20494;-52
2023/01/31 03:14:19;;;;;;;5.47;4.78;;;;;;;16.62;57.43;98999.78;2071772;28;20479;-47
2023/01/31 03:18:27;;;;;;;6.20;3.88;;;;;;;16.57;57.55;98992.28;2073338;28;20053;-50
2023/01/31 03:19:38;;;;;;;6.22;3.97;;;;;;;16.61;57.50;98998.97;2069027;28;20053;-54
2023/01/31 03:20:44;;;;;;;7.50;4.65;;;;;;;16.59;57.53;98998.31;2067557;28;20131;-46
2023/01/31 03:21:51;;;;;;;6.97;4.57;;;;;;;16.61;57.54;98998.13;2071559;28;20077;-53
2023/01/31 03:22:57;;;;;;;8.23;4.55;;;;;;;16.60;57.36;98997.28;2071568;28;20042;-53
2023/01/31 03:23:59;;;;;;;4.97;4.15;;;;;;;16.56;57.44;98990.63;2069732;28;20073;-54
2023/01/31 03:25:04;;;;;;;6.18;4.43;;;;;;;16.58;57.46;99002.00;2069511;28;20057;-51
2023/01/31 03:26:07;;;;;;;5.70;4.63;;;;;;;16.58;57.41;98996.66;2066445;28;20168;-52
2023/01/31 03:27:08;;;;;;;6.32;4.30;;;;;;;16.58;57.38;99002.00;2069151;28;20091;-53
2023/01/31 03:28:12;;;;;;;;;;;;;;;16.46;57.59;99003.44;2070320;28;20049;-50
2023/01/31 03:29:16;;;;;;;5.95;3.90;;;;;;;16.51;57.70;99006.41;2071768;28;19936;-51
2023/01/31 03:30:24;;;;;;;4.90;3.92;;;;;;;16.51;57.42;99009.91;2070170;28;20487;-48
2023/01/31 03:31:30;;;;;;;6.05;3.90;;;;;;;16.52;57.43;99008.09;2073325;28;20053;-49
2023/01/31 03:32:37;;;;;;;5.40;3.70;;;;;;;16.51;57.48;99004.56;2074494;28;20103;-50
2023/01/31 03:33:42;;;;;;;4.97;3.50;;;;;;;16.52;57.38;99006.25;2074905;28;20052;-47
2023/01/31 03:34:44;;;;;;;4.05;3.45;;;;;;;16.51;57.37;99004.56;2062008;28;20110;-50
2023/01/31 03:35:52;;;;;;;5.97;4.28;;;;;;;16.52;57.44;99008.91;2068078;28;20107;-49
2023/01/31 03:36:56;;;;;;;4.43;3.60;;;;;;;16.50;57.49;99007.44;2066044;28;20451;-54
2023/01/31 03:38:05;;;;;;;5.20;3.95;;;;;;;16.50;57.47;99007.44;2066149;28;20057;-54
2023/01/31 03:39:15;;;;;;;5.72;3.70;;;;;;;16.50;57.36;99012.78;2067798;28;20060;-47
2023/01/31 03:40:20;;;;;;;4.90;4.18;;;;;;;16.49;57.50;99005.75;2070041;28;20690;-49
2023/01/31 03:41:27;;;;;;;5.75;4.15;;;;;;;16.48;57.46;99009.44;2069016;28;20073;-48
2023/01/31 03:42:41;;;;;;;7.10;4.35;;;;;;;16.46;57.31;99011.47;2070180;28;20060;-46
2023/01/31 03:43:49;;;;;;;4.97;3.63;;;;;;;16.44;57.53;99009.00;2063946;28;20090;-55
2023/01/31 03:44:58;;;;;;;5.53;4.13;;;;;;;16.43;57.44;99011.84;2067620;28;20053;-53
2023/01/31 03:46:05;;;;;;;5.70;3.90;;;;;;;16.44;57.43;99018.88;2069883;28;20732;-51
2023/01/31 03:47:15;;;;;;;6.60;3.95;;;;;;;16.41;57.60;99017.38;2072910;28;20141;-49
2023/01/31 03:48:21;;;;;;;6.00;4.15;;;;;;;16.41;57.54;99025.41;2067272;28;20057;-49
2023/01/31 03:49:27;;;;;;;5.47;3.95;;;;;;;16.39;57.64;99027.44;2071802;28;20060;-54
2023/01/31 03:50:34;;;;;;;4.35;3.20;;;;;;;16.41;57.62;99019.19;2066773;28;20683;-51
2023/01/31 03:51:40;;;;;;;6.30;3.97;;;;;;;16.41;57.44;99021.88;2070178;28;20045;-48
2023/01/31 03:52:50;;;;;;;5.93;3.75;;;;;;;16.41;57.48;99021.88;2068671;28;20053;-47
2023/01/31 03:53:53;;;;;;;6.70;4.15;;;;;;;16.40;57.56;99022.91;2068353;28;20057;-50
2023/01/31 03:54:59;;;;;;;6.95;4.50;;;;;;;16.39;57.53;99015.91;2069873;28;20095;-52
2023/01/31 03:56:02;;;;;;;4.93;3.58;;;;;;;16.37;57.57;99024.09;2068930;28;20080;-55
2023/01/31 03:57:12;;;;;;;3.88;3.35;;;;;;;16.37;57.49;99023.25;2062455;28;20717;-51
2023/01/31 03:58:16;;;;;;;6.00;4.15;;;;;;;16.37;57.54;99023.25;2066103;28;20604;-53
2023/01/31 03:59:26;;;;;;;6.07;3.85;;;;;;;16.36;57.44;99024.28;2064449;28;20136;-52
2023/01/31 04:00:29;;;;;;;5.57;3.80;;;;;;;16.36;57.47;99026.97;2070070;28;20113;-52
2023/01/31 04:01:36;;;;;;;4.18;3.17;;;;;;;16.35;57.46;99026.09;2066613;28;20046;-47
2023/01/31 04:02:40;;;;;;;4.00;3.17;;;;;;;16.34;57.49;99028.97;2068136;28;20119;-50
2023/01/31 04:03:44;;;;;;;5.80;4.15;;;;;;;16.34;57.56;99031.66;2066362;28;20057;-48
2023/01/31 04:04:50;;;;;;;4.20;3.67;;;;;;;16.34;57.59;99037.00;2068647;28;20053;-48
2023/01/31 04:05:53;;;;;;;5.63;3.80;;;;;;;16.33;57.67;99038.03;2065966;28;20438;-51
2023/01/31 04:06:55;;;;;;;4.60;3.50;;;;;;;16.31;57.68;99036.34;2064202;28;20050;-51
2023/01/31 04:07:56;;;;;;;4.93;3.65;;;;;;;16.30;57.53;99042.72;2064637;28;20077;-55
2023/01/31 04:08:57;;;;;;;;;;;;;;;16.17;57.81;99039.81;2069209;28;20117;-49
2023/01/31 04:09:58;;;;;;;5.85;3.83;;;;;;;16.20;57.89;99039.44;2073609;28;19974;-50
2023/01/31 04:11:00;;;;;;;;;;;;;;;16.09;58.16;99037.19;2070058;28;20118;-52
2023/01/31 04:12:02;;;;;;;6.90;4.45;;;;;;;16.15;58.10;99041.00;2066226;28;19936;-50
2023/01/31 04:13:03;;;;;;;5.03;3.60;;;;;;;16.18;58.00;99043.31;2073613;28;20795;-50
2023/01/31 04:14:04;;;;;;;5.10;3.60;;;;;;;16.23;57.73;99047.13;2065922;28;20483;-53
2023/01/31 04:15:07;;;;;;;6.22;4.35;;;;;;;16.24;57.72;99046.13;2072002;28;20054;-44
2023/01/31 04:16:08;;;;;;;5.07;3.83;;;;;;;16.25;57.53;99041.59;2068833;28;20103;-54
2023/01/31 04:17:09;;;;;;;;;;;;;;;16.11;57.90;99035.16;2071731;28;20405;-52
2023/01/31 04:18:10;;;;;;;6.82;3.78;;;;;;;16.14;57.88;99029.47;2067548;28;19995;-55
2023/01/31 04:19:12;;;;;;;;;;;;;;;16.05;58.11;99028.69;2069941;28;20049;-53
2023/01/31 04:20:12;;;;;;;4.88;4.20;;;;;;;16.08;58.01;99030.19;2071324;28;19932;-47
2023/01/31 04:21:15;;;;;;;;;;;;;;;16.01;58.32;99023.84;2077021;28;20458;-52
2023/01/31 04:22:16;;;;;;;5.43;3.63;;;;;;;16.08;57.98;99027.50;2062995;28;19936;-48
2023/01/31 04:23:18;;;;;;;;;;;;;;;15.97;58.24;99027.91;2069282;28;20711;-50
2023/01/31 04:24:18;;;;;;;7.68;3.60;;;;;;;16.03;58.32;99028.03;2068688;28;20052;-47
2023/01/31 04:25:20;;;;;;;;;;;;;;;15.96;58.37;99031.56;2067293;28;20132;-50
2023/01/31 04:26:21;;;;;;;5.82;4.13;;;;;;;16.04;58.26;99026.16;2068249;28;19959;-50
2023/01/31 04:27:22;;;;;;;;;;;;;;;15.95;58.42;99035.28;2061422;28;20061;-48
2023/01/31 04:28:23;;;;;;;6.07;4.00;;;;;;;16.02;58.24;99031.72;2068124;28;20893;-49
2023/01/31 04:29:24;;;;;;;;;;;;;;;15.94;58.21;99042.47;2071505;28;20049;-48
2023/01/31 04:30:25;;;;;;;4.57;3.40;;;;;;;16.00;58.23;99044.44;2069196;28;19991;-49
2023/01/31 04:31:26;;;;;;;;;;;;;;;15.95;58.40;99045.97;2072877;28;20057;-51
2023/01/31 04:32:27;;;;;;;4.35;3.28;;;;;;;16.00;58.25;99047.09;2072833;28;19975;-46
2023/01/31 04:33:28;;;;;;;;;;;;;;;15.92;58.37;99057.03;2071219;28;20053;-48
2023/01/31 04:34:29;;;;;;;4.63;3.50;;;;;;;15.97;58.32;99054.66;2075137;28;19982;-47
2023/01/31 04:35:31;;;;;;;;;;;;;;;15.89;58.45;99052.84;2068436;28;20894;-48
2023/01/31 04:36:33;;;;;;;5.65;3.40;;;;;;;15.97;58.35;99050.13;2067872;28;20548;-47
2023/01/31 04:37:35;;;;;;;4.60;3.38;;;;;;;16.01;58.23;99051.44;2064144;28;20049;-48
2023/01/31 04:38:37;;;;;;;6.20;3.53;;;;;;;16.03;58.05;99045.91;2069947;28;20049;-46
2023/01/31 04:39:38;;;;;;;4.97;3.28;;;;;;;16.06;57.94;99045.56;2066042;28;20102;-47
2023/01/31 04:40:39;;;;;;;;;;;;;;;15.95;58.23;99045.97;2067819;28;20094;-50
2023/01/31 04:41:40;;;;;;;6.45;4.22;;;;;;;15.98;58.16;99056.31;2073291;28;19966;-48
2023/01/31 04:42:41;;;;;;;;;;;;;;;15.90;58.27;99045.66;2068214;28;20053;-46
2023/01/31 04:43:42;;;;;;;4.18;3.47;;;;;;;15.94;58.23;99047.81;2066757;28;19929;-48
2023/01/31 04:44:43;;;;;;;;;;;;;;;15.85;58.38;99055.06;2065321;28;20683;-46
2023/01/31 04:45:44;;;;;;;5.95;4.15;;;;;;;15.92;58.24;99046.31;2070006;28;20563;-47
2023/01/31 04:46:45;;;;;;;;;;;;;;;15.83;58.45;99056.25;2068596;28;20046;-48
2023/01/31 04:47:46;;;;;;;4.65;3.38;;;;;;;15.91;58.33;99052.66;2065153;28;19936;-48
2023/01/31 04:48:48;;;;;;;;;;;;;;;15.80;58.49;99048.56;2068915;28;20164;-48
2023/01/31 04:49:48;;;;;;;4.30;3.78;;;;;;;15.88;58.38;99050.34;2071961;28;19928;-47
2023/01/31 04:50:50;;;;;;;;;;;;;;;15.79;58.58;99050.38;2069978;28;20103;-51
2023/01/31 04:51:52;;;;;;;7.18;3.92;;;;;;;15.86;58.46;99048.69;2066136;28;19928;-49
2023/01/31 04:52:54;;;;;;;6.30;3.83;;;;;;;15.89;58.20;99050.19;2067538;28;20045;-46
2023/01/31 04:53:55;;;;;;;6.35;4.60;;;;;;;15.96;58.17;99058.31;2074609;28;20045;-46
2023/01/31 04:54:56;;;;;;;;;;;;;;;15.88;58.19;99051.19;2071052;28;20542;-47
2023/01/31 04:55:57;;;;;;;5.43;3.50;;;;;;;15.96;58.06;99055.66;2066220;28;19929;-48
2023/01/31 04:56:58;;;;;;;;;;;;;;;15.96;57.99;99050.31;2067692;28;20052;-50
2023/01/31 04:57:59;;;;;;;5.40;3.20;;;;;;;16.07;57.82;99050.75;2069392;28;20361;-46
2023/01/31 04:59:01;;;;;;;;;;;;;;;16.07;57.91;99052.56;2066061;28;20057;-47
2023/01/31 05:00:01;;;;;;;5.07;3.10;;;;;;;16.20;57.64;99055.50;2072156;28;20337;-48
2023/01/31 05:01:03;;;;;;;;;;;;;;;16.14;57.91;99050.88;2068994;28;20049;-47
2023/01/31 05:02:03;;;;;;;4.63;3.25;;;;;;;16.19;57.76;99043.16;2067370;28;20038;-47
2023/01/31 05:03:05;;;;;;;;;;;;;;;16.19;57.94;99047.66;2068607;28;20409;-48
2023/01/31 05:04:06;;;;;;;5.22;4.28;;;;;;;16.27;57.79;99045.75;2069901;28;19951;-47
2023/01/31 05:05:08;;;;;;;4.55;3.22;;;;;;;16.32;57.83;99053.25;2068208;28;20668;-46
2023/01/31 05:06:09;;;;;;;4.22;2.92;;;;;;;16.40;57.57;99055.84;2070123;28;20116;-47
2023/01/31 05:07:11;;;;;;;4.63;3.20;;;;;;;16.46;57.52;99051.63;2071449;28;20420;-48
2023/01/31 05:08:13;;;;;;;4.40;3.53;;;;;;;16.48;57.33;99046.94;2069402;28;20049;-47
2023/01/31 05:09:14;;;;;;;5.72;2.85;;;;;;;16.52;57.47;99056.28;2072879;28;20617;-46
2023/01/31 05:10:17;;;;;;;;;;;;;;;16.46;57.63;99052.47;2068639;28;20057;-47
2023/01/31 05:11:18;;;;;;;5.47;3.60;;;;;;;16.51;57.55;99052.75;2067640;28;20011;-47
2023/01/31 05:12:19;;;;;;;4.32;2.80;;;;;;;16.59;57.57;99054.53;2073260;28;20098;-47
2023/01/31 05:13:20;;;;;;;;;;;;;;;16.53;57.68;99053.41;2075828;28;20107;-48
2023/01/31 05:14:21;;;;;;;4.60;2.83;;;;;;;16.58;57.54;99052.88;2061770;28;19928;-46
2023/01/31 05:15:22;;;;;;;;;;;;;;;16.54;57.80;99055.06;2069953;28;20492;-48